Time;durP1;ratioP1;P1;durP2;ratioP2;P2;SDS_P1;SDS_P2;PMS_P1;PMS_P2;Temp;Humidity;BMP_temperature;BMP_pressure;BME280_temperature;BME280_humidity;BME280_pressure;Samples;Min_cycle;Max_cycle;Signal;HPM_P1;HPM_P2
2022/01/21 00:01:21;;;;;;;6.00;3.70;;;;;;;22.68;33.13;100579.13;104664;1305;74856;-88
2022/01/21 00:04:26;;;;;;;;;;;;;;;;;;;;;
2022/01/21 00:07:01;;;;;;;6.30;4.00;;;;;;;22.68;33.39;100588.48;104291;1311;62160;-81
2022/01/21 00:09:50;;;;;;;6.50;3.40;;;;;;;22.68;33.20;100595.27;104316;1310;72941;-77
2022/01/21 00:12:40;;;;;;;5.90;3.60;;;;;;;22.68;33.38;100592.59;104388;1309;74816;-82
2022/01/21 00:15:25;;;;;;;5.90;3.30;;;;;;;22.68;33.52;100594.73;104376;1311;61399;-82
2022/01/21 00:17:53;;;;;;;5.70;3.60;;;;;;;22.68;33.44;100604.93;104403;1310;61770;-84
2022/01/21 00:30:14;;;;;;;5.60;3.70;;;;;;;22.68;33.49;100598.34;104401;1311;61295;-79
2022/01/21 00:32:51;;;;;;;5.20;3.70;;;;;;;22.68;33.34;100601.73;104422;1311;73980;-83
2022/01/21 00:35:45;;;;;;;6.00;3.50;;;;;;;22.69;33.53;100603.29;104389;1309;74744;-86
2022/01/21 00:38:25;;;;;;;5.60;3.90;;;;;;;22.69;33.25;100596.25;104425;1310;61432;-82
2022/01/21 00:41:31;;;;;;;5.80;3.80;;;;;;;22.70;33.48;100597.80;104459;1305;61486;-82
2022/01/21 00:44:12;;;;;;;5.00;3.40;;;;;;;22.69;33.53;100599.66;104385;1310;73959;-85
2022/01/21 00:46:58;;;;;;;6.10;3.90;;;;;;;22.70;33.37;100603.02;104324;1311;73929;-86
2022/01/21 00:50:04;;;;;;;6.80;3.30;;;;;;;22.70;33.40;100604.80;104365;1311;61392;-82
2022/01/21 00:52:39;;;;;;;4.70;3.30;;;;;;;22.70;33.39;100601.23;104381;1311;61191;-83
2022/01/21 00:55:27;;;;;;;5.30;3.50;;;;;;;22.70;33.43;100599.60;104362;1310;72693;-88
2022/01/21 00:58:08;;;;;;;5.00;3.40;;;;;;;22.70;33.38;100605.66;104347;1311;74530;-84
2022/01/21 01:01:05;;;;;;;4.90;3.30;;;;;;;22.70;33.45;100607.09;104310;1311;61158;-85
2022/01/21 01:03:54;;;;;;;5.10;3.40;;;;;;;22.71;33.37;100612.98;104390;1311;61213;-81
2022/01/21 01:06:36;;;;;;;4.90;3.40;;;;;;;22.71;33.61;100614.72;104312;1311;72787;-80
2022/01/21 01:09:13;;;;;;;5.90;3.40;;;;;;;22.72;33.56;100608.06;104443;1311;75267;-82
2022/01/21 01:12:07;;;;;;;5.20;3.50;;;;;;;22.72;33.58;100610.95;104461;1311;61421;-84
2022/01/21 01:21:05;;;;;;;;;;;;;;;;;;;;;
2022/01/21 01:24:04;;;;;;;4.70;3.50;;;;;;;22.72;33.46;100607.69;104177;1313;61660;-82
2022/01/21 01:30:08;;;;;;;;;;;;;;;;;;;;;
2022/01/21 01:32:58;;;;;;;5.00;3.00;;;;;;;22.72;33.47;100613.02;103762;1316;75321;-83
2022/01/21 01:35:47;;;;;;;5.40;3.20;;;;;;;22.72;33.64;100611.95;104157;1313;61475;-80
2022/01/21 01:39:10;;;;;;;;;;;;;;;;;;;;;
2022/01/21 01:51:01;;;;;;;6.30;3.40;;;;;;;22.73;33.50;100609.98;104269;1313;61785;-83
2022/01/21 01:53:30;;;;;;;5.00;3.30;;;;;;;22.73;33.57;100620.14;104260;1313;72802;-78
2022/01/21 01:56:37;;;;;;;5.70;3.70;;;;;;;22.73;33.57;100610.45;104207;1313;73669;-85
2022/01/21 01:59:15;;;;;;;5.10;3.10;;;;;;;22.73;33.51;100602.04;104696;1303;61826;-84
2022/01/21 02:02:01;;;;;;;5.00;3.40;;;;;;;22.73;33.32;100612.07;104762;1304;61607;-83
2022/01/21 02:04:50;;;;;;;4.90;3.30;;;;;;;22.73;33.69;100606.67;104838;1302;74031;-82
2022/01/21 02:07:36;;;;;;;6.80;3.30;;;;;;;22.73;33.49;100603.23;104861;1303;75674;-81
2022/01/21 02:10:26;;;;;;;4.80;3.20;;;;;;;22.74;33.56;100607.88;104383;1310;61208;-81
2022/01/21 02:13:25;;;;;;;5.90;3.30;;;;;;;22.73;33.67;100614.55;104289;1311;61441;-85
2022/01/21 02:16:34;;;;;;;4.60;3.20;;;;;;;22.73;33.54;100617.80;104377;1311;73931;-82
2022/01/21 02:22:33;;;;;;;5.60;3.40;;;;;;;22.74;33.55;100621.67;103678;1319;61467;-83
2022/01/21 02:25:21;;;;;;;5.60;3.10;;;;;;;22.74;33.55;100623.61;103666;1319;61354;-84
2022/01/21 02:28:19;;;;;;;4.40;3.20;;;;;;;22.74;33.52;100626.30;103669;1319;72759;-84
2022/01/21 02:31:11;;;;;;;4.30;3.00;;;;;;;22.75;33.52;100634.20;103498;1319;74699;-82
2022/01/21 02:33:43;;;;;;;5.40;3.50;;;;;;;22.75;33.55;100637.77;103407;1319;61490;-82
2022/01/21 02:36:29;;;;;;;5.50;3.20;;;;;;;22.75;33.51;100636.31;103331;1319;61807;-82
2022/01/21 02:39:25;;;;;;;4.70;3.00;;;;;;;22.75;33.43;100637.55;103663;1318;71891;-83
2022/01/21 02:41:58;;;;;;;5.70;3.10;;;;;;;22.74;33.49;100644.42;103665;1319;75087;-84
2022/01/21 02:44:44;;;;;;;4.90;3.10;;;;;;;22.75;33.55;100649.96;103477;1319;61855;-83
2022/01/21 02:47:31;;;;;;;4.90;3.20;;;;;;;22.75;33.54;100650.86;103570;1313;61437;-85
2022/01/21 02:50:06;;;;;;;4.30;3.10;;;;;;;22.75;33.40;100657.27;104234;1312;73914;-84
2022/01/21 02:52:52;;;;;;;;;;;;;;;;;;;;;
2022/01/21 02:55:43;;;;;;;5.40;3.30;;;;;;;22.75;33.58;100653.70;104071;1310;61419;-81
2022/01/21 02:58:21;;;;;;;4.80;3.10;;;;;;;22.75;33.46;100655.86;104458;1310;61428;-82
2022/01/21 03:00:58;;;;;;;4.90;3.20;;;;;;;22.75;33.41;100652.60;104442;1310;72816;-86
2022/01/21 03:04:04;;;;;;;4.30;2.80;;;;;;;22.76;33.62;100654.52;104401;1309;73586;-82
2022/01/21 03:06:51;;;;;;;5.10;3.10;;;;;;;22.75;33.59;100646.17;104402;1309;61091;-81
2022/01/21 03:09:33;;;;;;;4.50;3.10;;;;;;;22.76;33.42;100644.83;104446;1310;61990;-82
2022/01/21 03:12:09;;;;;;;4.60;3.30;;;;;;;22.76;33.47;100637.34;104475;1309;74213;-83
2022/01/21 03:15:16;;;;;;;4.60;3.10;;;;;;;22.76;33.45;100628.33;104413;1309;73600;-83
2022/01/21 03:17:52;;;;;;;;;;;;;;;;;;;;;
2022/01/21 03:20:47;;;;;;;5.20;3.20;;;;;;;22.76;33.52;100632.06;104282;1312;60516;-85
2022/01/21 03:23:20;;;;;;;5.10;3.30;;;;;;;22.76;33.56;100636.91;104243;1312;73888;-84
2022/01/21 03:25:49;;;;;;;5.10;3.20;;;;;;;22.77;33.43;100642.81;104310;1306;75219;-83
2022/01/21 03:28:38;;;;;;;4.90;3.10;;;;;;;22.77;33.38;100641.90;104595;1306;61305;-82
2022/01/21 03:31:24;;;;;;;7.10;3.10;;;;;;;22.77;33.46;100642.45;104425;1308;61636;-82
2022/01/21 03:34:12;;;;;;;5.90;3.20;;;;;;;22.77;33.30;100647.84;104420;1310;74067;-84
2022/01/21 03:36:44;;;;;;;4.70;3.40;;;;;;;22.77;33.49;100645.11;104169;1313;75900;-80
2022/01/21 03:39:18;;;;;;;5.50;3.00;;;;;;;22.77;33.43;100647.43;104271;1313;61200;-82
2022/01/21 03:41:55;;;;;;;4.20;2.90;;;;;;;22.78;33.44;100653.33;104178;1313;61159;-83
2022/01/21 03:44:54;;;;;;;4.60;3.40;;;;;;;22.78;33.59;100657.25;104103;1313;72791;-83
2022/01/21 03:47:35;;;;;;;;;;;;;;;;;;;;;
2022/01/21 03:50:31;;;;;;;4.70;3.10;;;;;;;22.77;33.44;100654.63;103948;1317;61356;-84
2022/01/21 03:53:03;;;;;;;5.60;3.30;;;;;;;22.77;33.61;100654.63;103083;1322;61195;-83
2022/01/21 03:55:48;;;;;;;4.70;3.20;;;;;;;22.77;33.51;100656.95;102999;1322;72683;-82
2022/01/21 03:58:32;;;;;;;4.50;3.00;;;;;;;22.78;33.58;100651.55;103067;1322;76448;-82
2022/01/21 04:01:16;;;;;;;5.80;3.10;;;;;;;22.78;33.59;100653.33;102968;1322;61320;-78
2022/01/21 04:03:53;;;;;;;4.90;3.20;;;;;;;22.78;33.46;100664.27;103076;1322;61525;-88
2022/01/21 04:06:42;;;;;;;5.10;3.00;;;;;;;22.78;33.58;100670.17;103041;1321;74024;-85
2022/01/21 04:09:11;;;;;;;5.40;3.20;;;;;;;22.77;33.34;100678.83;102979;1322;76152;-80
2022/01/21 04:11:58;;;;;;;5.60;3.50;;;;;;;22.78;33.43;100684.36;103057;1322;61877;-84
2022/01/21 04:14:26;;;;;;;5.20;3.40;;;;;;;22.78;33.53;100694.05;103212;1319;63084;-81
2022/01/21 04:17:08;;;;;;;5.40;3.40;;;;;;;22.78;33.46;100696.91;103501;1318;72938;-83
2022/01/21 04:19:50;;;;;;;6.00;3.50;;;;;;;22.78;33.59;100696.89;103407;1319;74702;-81
2022/01/21 04:22:36;;;;;;;5.90;3.40;;;;;;;22.79;33.61;100692.21;103280;1319;61579;-82
2022/01/21 04:25:10;;;;;;;7.20;3.60;;;;;;;22.78;33.46;100694.22;103974;1313;61211;-81
2022/01/21 04:28:19;;;;;;;5.60;3.30;;;;;;;22.78;33.21;100703.02;103995;1313;71536;-80
2022/01/21 04:31:08;;;;;;;6.50;3.50;;;;;;;22.77;33.02;100703.06;104031;1312;75677;-82
2022/01/21 04:33:56;;;;;;;5.60;3.40;;;;;;;22.77;32.61;100707.44;104293;1313;63209;-80
2022/01/21 04:36:56;;;;;;;4.80;3.40;;;;;;;22.77;32.49;100704.73;103952;1316;61456;-82
2022/01/21 04:39:39;;;;;;;8.20;3.40;;;;;;;22.76;32.59;100707.27;103680;1314;73795;-88
2022/01/21 04:48:43;;;;;;;5.90;3.50;;;;;;;22.78;32.45;100716.67;103698;1316;61491;-84
2022/01/21 04:51:37;;;;;;;7.00;3.60;;;;;;;22.78;32.37;100741.38;103805;1316;73864;-84
2022/01/21 04:54:12;;;;;;;6.10;3.30;;;;;;;22.78;32.63;100767.55;103793;1317;74669;-82
2022/01/21 04:56:53;;;;;;;8.40;3.20;;;;;;;22.78;32.50;100774.39;103826;1316;62474;-82
2022/01/21 04:59:30;;;;;;;9.50;3.40;;;;;;;22.79;32.45;100783.16;103797;1316;60678;-82
2022/01/21 05:02:12;;;;;;;9.50;3.70;;;;;;;22.79;32.46;100781.70;104048;1316;72882;-84
2022/01/21 05:05:02;;;;;;;;;;;;;;;;;;;;;
2022/01/21 05:07:45;;;;;;;;;;;;;;;;;;;;;
2022/01/21 05:10:38;;;;;;;5.60;3.20;;;;;;;22.79;32.42;100784.95;104309;1313;61277;-82
2022/01/21 05:13:07;;;;;;;8.10;3.70;;;;;;;22.79;32.39;100789.23;104247;1305;73969;-84
2022/01/21 05:19:03;;;;;;;7.30;3.70;;;;;;;22.75;32.52;100796.84;104883;1302;61179;-83
2022/01/21 05:21:52;;;;;;;;;;;;;;;;;;;;;
2022/01/21 05:24:38;;;;;;;6.00;3.60;;;;;;;22.73;32.19;100820.70;104749;1302;72778;-86
2022/01/21 05:27:13;;;;;;;8.80;3.70;;;;;;;22.71;31.96;100832.20;104777;1305;76140;-84
2022/01/21 05:30:08;;;;;;;5.80;4.00;;;;;;;22.67;31.95;100838.39;104832;1302;61501;-82
2022/01/21 05:32:53;;;;;;;8.00;4.10;;;;;;;22.61;31.94;100847.29;104794;1302;61185;-84
2022/01/21 05:35:42;;;;;;;8.40;4.50;;;;;;;22.54;31.41;100858.73;104874;1302;73785;-79
2022/01/21 05:38:11;;;;;;;8.70;4.60;;;;;;;22.49;31.21;100856.27;104718;1302;74777;-85
2022/01/21 05:40:48;;;;;;;8.40;4.90;;;;;;;22.45;30.88;100857.48;104503;1302;61218;-78
2022/01/21 05:43:13;;;;;;;8.80;4.50;;;;;;;22.42;30.53;100857.39;104517;1302;61311;-81
2022/01/21 05:48:31;;;;;;;9.50;5.00;;;;;;;22.34;29.98;100869.63;104600;1302;75213;-81
2022/01/21 05:51:10;;;;;;;;;;;;;;;;;;;;;
2022/01/21 05:53:36;;;;;;;9.60;4.90;;;;;;;22.25;29.29;100875.45;104430;1303;61418;-81
2022/01/21 05:56:04;;;;;;;12.30;5.50;;;;;;;22.20;29.15;100883.20;104323;1302;61415;-80
2022/01/21 05:58:30;;;;;;;16.50;5.00;;;;;;;22.14;28.87;100888.63;104315;1302;75165;-79
2022/01/21 06:00:56;;;;;;;9.30;5.00;;;;;;;22.08;28.50;100890.72;104387;1302;61244;-79
2022/01/21 06:03:21;;;;;;;10.50;5.30;;;;;;;22.02;28.64;100890.92;104183;1305;61387;-80
2022/01/21 06:05:47;;;;;;;10.30;4.60;;;;;;;21.99;28.37;100906.27;104326;1300;60195;-78
2022/01/21 06:08:12;;;;;;;9.20;5.00;;;;;;;21.96;28.04;100905.74;104497;1301;61298;-79
2022/01/21 06:10:38;;;;;;;7.00;4.40;;;;;;;21.96;27.96;100913.47;104165;1303;74285;-78
2022/01/21 06:13:03;;;;;;;8.30;4.90;;;;;;;21.96;27.92;100913.42;104368;1303;61286;-78
2022/01/21 06:15:29;;;;;;;9.20;4.70;;;;;;;21.99;27.59;100920.95;104277;1303;60011;-78
2022/01/21 06:18:04;;;;;;;10.60;4.70;;;;;;;22.02;27.39;100924.31;104302;1302;61785;-78
2022/01/21 06:20:30;;;;;;;6.90;4.90;;;;;;;22.06;27.56;100930.25;104535;1302;75665;-78
2022/01/21 06:22:56;;;;;;;10.30;4.80;;;;;;;22.09;27.15;100931.61;104442;1302;61264;-84
2022/01/21 06:25:21;;;;;;;8.10;4.80;;;;;;;22.14;27.28;100932.20;104339;1303;61269;-80
2022/01/21 06:27:50;;;;;;;9.40;4.90;;;;;;;22.18;26.97;100934.04;104327;1302;61356;-81
2022/01/21 06:30:18;;;;;;;9.40;4.30;;;;;;;22.23;27.26;100936.04;104170;1303;73607;-78
2022/01/21 06:32:49;;;;;;;7.60;4.30;;;;;;;22.27;27.23;100934.44;104232;1304;61780;-78
2022/01/21 06:35:18;;;;;;;15.60;4.60;;;;;;;22.32;27.20;100935.92;104568;1302;61926;-79
2022/01/21 06:37:43;;;;;;;10.70;4.50;;;;;;;22.36;27.38;100941.05;104293;1302;73946;-79
2022/01/21 06:40:09;;;;;;;23.70;4.90;;;;;;;22.38;27.55;100941.41;104159;1303;61290;-78
2022/01/21 06:42:36;;;;;;;15.30;4.30;;;;;;;22.40;27.44;100934.21;104402;1302;61265;-79
2022/01/21 06:45:02;;;;;;;15.00;4.70;;;;;;;22.42;27.73;100932.84;105660;1301;61300;-79
2022/01/21 06:47:28;;;;;;;11.90;4.30;;;;;;;22.45;27.95;100931.58;104358;1302;59955;-78
2022/01/21 06:49:54;;;;;;;18.90;5.00;;;;;;;22.47;27.86;100940.38;104364;1302;61305;-79
2022/01/21 06:52:21;;;;;;;13.50;4.40;;;;;;;22.49;27.88;100951.19;104477;1302;63324;-79
2022/01/21 06:54:48;;;;;;;9.50;5.50;;;;;;;22.47;27.92;100949.73;104349;1302;60007;-79
2022/01/21 06:57:14;;;;;;;9.50;5.10;;;;;;;22.34;27.67;100950.27;104646;1302;61462;-79
2022/01/21 06:59:40;;;;;;;18.20;5.20;;;;;;;22.20;27.47;100955.58;104352;1302;61260;-78
2022/01/21 07:02:06;;;;;;;15.10;5.80;;;;;;;22.13;27.48;100958.46;104287;1302;61199;-80
2022/01/21 07:04:32;;;;;;;13.80;5.30;;;;;;;22.10;27.80;100960.80;104183;1302;61420;-80
2022/01/21 07:06:58;;;;;;;8.10;5.20;;;;;;;22.10;27.66;100956.15;104472;1302;59902;-80
2022/01/21 07:09:25;;;;;;;14.70;5.30;;;;;;;22.10;27.65;100952.54;104357;1302;72888;-80
2022/01/21 07:11:51;;;;;;;11.50;5.80;;;;;;;22.08;27.59;100955.38;104890;1302;75706;-80
2022/01/21 07:14:16;;;;;;;11.80;5.20;;;;;;;22.05;27.66;100957.77;104375;1303;61351;-79
2022/01/21 07:16:42;;;;;;;9.50;5.50;;;;;;;22.05;27.46;100957.98;104359;1302;61307;-79
2022/01/21 07:19:07;;;;;;;10.30;5.50;;;;;;;22.07;27.57;100954.94;104415;1303;61283;-79
2022/01/21 07:21:33;;;;;;;9.20;5.10;;;;;;;22.10;27.53;100950.77;104410;1302;61361;-78
2022/01/21 07:23:59;;;;;;;8.90;5.10;;;;;;;22.15;27.80;100950.10;104310;1302;74639;-79
2022/01/21 07:26:26;;;;;;;10.30;5.20;;;;;;;22.19;27.79;100949.58;104518;1302;61394;-79
2022/01/21 07:28:52;;;;;;;12.40;5.30;;;;;;;22.23;27.99;100954.66;104419;1302;61310;-82
2022/01/21 07:31:17;;;;;;;11.00;5.00;;;;;;;22.26;28.03;100956.38;104492;1302;60146;-78
2022/01/21 07:33:43;;;;;;;8.30;5.10;;;;;;;22.31;28.05;100962.02;104348;1302;59681;-78
2022/01/21 07:36:08;;;;;;;14.00;5.00;;;;;;;22.34;28.07;100957.27;104511;1301;61313;-78
2022/01/21 07:38:34;;;;;;;14.20;4.90;;;;;;;22.38;28.16;100963.83;104558;1302;61857;-80
2022/01/21 07:40:59;;;;;;;11.90;5.20;;;;;;;22.40;28.27;100964.55;104559;1302;61351;-80
2022/01/21 07:43:25;;;;;;;11.30;5.00;;;;;;;22.43;28.51;100968.11;104433;1302;61222;-79
2022/01/21 07:45:50;;;;;;;12.10;4.80;;;;;;;22.45;28.42;100972.47;104609;1301;61693;-79
2022/01/21 07:48:21;;;;;;;9.20;4.90;;;;;;;22.47;28.47;100968.39;104592;1302;61368;-79
2022/01/21 07:50:47;;;;;;;8.60;4.90;;;;;;;22.48;28.47;100969.51;104057;1303;59435;-80
2022/01/21 07:53:13;;;;;;;13.60;6.90;;;;;;;22.48;28.47;100976.67;104184;1302;61336;-78
2022/01/21 07:55:38;;;;;;;13.00;5.90;;;;;;;22.40;28.13;100983.26;104348;1302;61371;-79
2022/01/21 07:58:04;;;;;;;20.40;6.90;;;;;;;22.28;27.98;100981.38;104265;1303;61281;-79
2022/01/21 08:00:31;;;;;;;19.90;8.10;;;;;;;22.15;28.09;100975.36;104164;1302;59544;-81
2022/01/21 08:02:57;;;;;;;19.30;8.10;;;;;;;22.07;27.90;100968.36;104301;1302;63007;-80
2022/01/21 08:05:22;;;;;;;19.70;7.80;;;;;;;22.02;28.15;100962.11;104467;1302;59326;-78
2022/01/21 08:07:48;;;;;;;17.60;7.20;;;;;;;21.98;27.90;100958.66;104188;1303;76265;-79
2022/01/21 08:10:15;;;;;;;18.60;8.10;;;;;;;21.93;28.07;100961.89;104181;1305;61272;-79
2022/01/21 08:12:40;;;;;;;14.10;7.30;;;;;;;21.89;27.76;100967.55;104384;1302;59884;-79
2022/01/21 08:15:06;;;;;;;15.00;7.30;;;;;;;21.85;27.62;100980.56;104395;1302;61316;-79
2022/01/21 08:17:32;;;;;;;13.00;6.90;;;;;;;21.80;27.68;100980.33;104494;1302;61185;-78
2022/01/21 08:19:58;;;;;;;16.70;7.50;;;;;;;21.77;27.58;100987.91;103986;1304;61394;-79
2022/01/21 08:22:25;;;;;;;15.00;7.70;;;;;;;21.74;27.45;100988.45;104118;1303;59525;-80
2022/01/21 08:24:59;;;;;;;12.40;6.80;;;;;;;21.71;27.26;100988.00;104887;1306;59249;-79
2022/01/21 08:27:24;;;;;;;13.80;6.30;;;;;;;21.68;27.20;100989.43;104156;1305;74963;-79
2022/01/21 08:29:50;;;;;;;16.30;6.60;;;;;;;21.65;26.97;100987.86;104072;1306;61281;-80
2022/01/21 08:32:16;;;;;;;13.10;6.30;;;;;;;21.62;26.83;100986.27;104037;1305;61395;-79
2022/01/21 08:34:42;;;;;;;11.60;6.20;;;;;;;21.59;26.93;100987.18;104076;1306;61426;-80
2022/01/21 08:37:08;;;;;;;16.00;6.20;;;;;;;21.56;26.89;100988.63;104021;1306;61469;-79
2022/01/21 08:39:33;;;;;;;13.10;6.00;;;;;;;21.55;26.85;100988.89;104076;1307;61326;-79
2022/01/21 08:42:02;;;;;;;12.40;6.10;;;;;;;21.53;26.73;100991.71;104126;1306;61609;-78
2022/01/21 08:44:28;;;;;;;12.30;6.30;;;;;;;21.51;26.71;100998.10;104064;1305;61372;-79
2022/01/21 08:46:53;;;;;;;16.20;6.30;;;;;;;21.49;26.62;100994.15;104075;1307;61261;-78
2022/01/21 08:49:20;;;;;;;9.30;5.80;;;;;;;21.47;26.70;100998.17;104051;1307;61295;-78
2022/01/21 08:51:55;;;;;;;11.20;6.00;;;;;;;21.46;26.57;101007.39;104198;1302;61189;-78
2022/01/21 08:54:21;;;;;;;15.40;6.00;;;;;;;21.47;26.64;101012.20;103989;1302;61214;-79
2022/01/21 08:56:47;;;;;;;20.90;6.20;;;;;;;21.45;26.56;101012.88;104055;1305;61305;-78
2022/01/21 08:59:14;;;;;;;15.40;5.90;;;;;;;21.43;26.74;101016.75;103818;1302;61313;-78
2022/01/21 09:01:39;;;;;;;24.40;6.20;;;;;;;21.41;26.80;101013.65;104639;1304;60300;-78
2022/01/21 09:04:05;;;;;;;17.80;5.80;;;;;;;21.35;27.04;101008.51;103790;1307;61488;-79
2022/01/21 09:06:31;;;;;;;16.10;6.00;;;;;;;21.34;27.09;101005.42;104198;1302;61419;-78
2022/01/21 09:08:57;;;;;;;14.20;5.70;;;;;;;21.34;27.13;101004.31;104134;1302;61156;-81
2022/01/21 09:11:23;;;;;;;18.50;6.00;;;;;;;21.35;27.22;101000.13;103962;1305;61348;-78
2022/01/21 09:13:52;;;;;;;17.80;5.70;;;;;;;21.39;27.04;100998.42;104262;1302;61380;-80
2022/01/21 09:16:19;;;;;;;18.80;5.50;;;;;;;21.43;27.06;100995.08;104354;1303;61328;-78
2022/01/21 09:18:57;;;;;;;11.80;5.80;;;;;;;21.48;27.03;100993.66;104505;1303;61292;-81
2022/01/21 09:21:26;;;;;;;13.00;5.20;;;;;;;21.56;26.87;100999.61;104400;1304;61309;-81
2022/01/21 09:23:55;;;;;;;17.40;5.40;;;;;;;21.61;27.02;101002.99;104457;1302;61247;-80
2022/01/21 09:26:22;;;;;;;17.00;5.70;;;;;;;21.67;27.06;101000.63;104342;1302;61320;-79
2022/01/21 09:28:51;;;;;;;17.30;5.30;;;;;;;21.72;27.07;101000.80;105351;1303;75975;-80
2022/01/21 09:31:17;;;;;;;13.20;5.40;;;;;;;21.78;27.09;101005.41;105049;1302;61250;-76
2022/01/21 09:33:43;;;;;;;17.10;6.00;;;;;;;21.78;27.11;101004.31;104366;1303;60024;-79
2022/01/21 09:36:09;;;;;;;13.90;6.00;;;;;;;21.78;27.27;101002.71;104429;1303;61270;-80
2022/01/21 09:38:35;;;;;;;15.10;5.60;;;;;;;21.79;27.11;101001.77;104466;1303;63207;-80
2022/01/21 09:41:04;;;;;;;11.80;6.50;;;;;;;21.77;27.12;101006.34;104295;1303;61296;-79
2022/01/21 09:43:29;;;;;;;21.50;5.90;;;;;;;21.76;26.77;101005.72;104496;1303;61205;-79
2022/01/21 09:45:55;;;;;;;11.10;5.70;;;;;;;21.74;26.76;101006.41;104288;1305;61320;-80
2022/01/21 09:48:27;;;;;;;14.60;5.80;;;;;;;21.72;26.71;101004.89;104128;1303;61297;-79
2022/01/21 09:50:55;;;;;;;12.80;5.90;;;;;;;21.73;26.93;101002.90;105389;1303;61502;-79
2022/01/21 09:53:25;;;;;;;15.50;6.00;;;;;;;21.74;27.11;101003.88;104852;1305;62518;-79
2022/01/21 09:55:51;;;;;;;21.10;5.60;;;;;;;21.69;26.74;101001.73;104792;1303;74476;-79
2022/01/21 09:58:16;;;;;;;13.80;5.50;;;;;;;21.64;26.81;101001.69;105060;1303;60265;-78
2022/01/21 10:00:42;;;;;;;11.70;4.90;;;;;;;21.61;26.88;101002.98;104198;1303;61976;-79
2022/01/21 10:03:09;;;;;;;12.10;4.60;;;;;;;21.59;26.77;101000.09;104157;1303;61303;-79
2022/01/21 10:05:34;;;;;;;15.40;4.50;;;;;;;21.55;26.69;100997.35;104244;1302;61331;-78
2022/01/21 10:08:00;;;;;;;12.10;4.50;;;;;;;21.52;26.99;100991.42;104452;1302;61385;-78
2022/01/21 10:10:26;;;;;;;13.60;4.30;;;;;;;21.50;27.06;100985.44;104387;1302;61308;-79
2022/01/21 10:13:01;;;;;;;9.80;4.30;;;;;;;21.50;27.02;100978.86;104416;1302;173639;-79
2022/01/21 10:15:26;;;;;;;13.60;4.90;;;;;;;21.49;27.08;100975.88;104420;1302;62290;-80
2022/01/21 10:18:12;;;;;;;11.40;3.80;;;;;;;21.47;27.09;100974.93;104386;1303;61404;-78
2022/01/21 10:20:38;;;;;;;8.30;3.30;;;;;;;21.43;26.58;100972.51;105332;1302;74630;-78
2022/01/21 10:23:09;;;;;;;15.70;3.50;;;;;;;21.43;26.22;100973.06;105140;1303;60738;-79
2022/01/21 10:25:35;;;;;;;12.60;3.60;;;;;;;21.44;26.01;100966.55;105343;1303;61822;-78
2022/01/21 10:28:17;;;;;;;8.70;3.00;;;;;;;21.44;26.03;100972.81;105338;1302;60489;-79
2022/01/21 10:30:43;;;;;;;7.70;2.90;;;;;;;21.46;25.79;100975.94;105400;1302;75703;-78
2022/01/21 10:33:23;;;;;;;8.50;3.10;;;;;;;21.49;25.53;100970.89;104656;1302;61447;-79
2022/01/21 10:35:49;;;;;;;8.70;2.80;;;;;;;21.52;25.49;100965.61;105070;1302;60575;-79
2022/01/21 10:38:24;;;;;;;11.50;3.40;;;;;;;21.55;25.44;100961.85;104805;1304;63102;-78
2022/01/21 10:40:50;;;;;;;8.90;3.50;;;;;;;21.58;25.41;100963.10;104853;1302;73667;-78
2022/01/21 10:43:18;;;;;;;9.10;3.30;;;;;;;21.62;25.27;100962.84;104302;1303;61305;-78
2022/01/21 10:45:54;;;;;;;15.30;3.40;;;;;;;21.65;25.42;100950.61;104139;1303;61209;-79
2022/01/21 10:48:20;;;;;;;6.20;3.00;;;;;;;21.68;25.39;100939.46;105363;1302;72973;-79
2022/01/21 10:50:46;;;;;;;13.70;3.10;;;;;;;21.69;25.57;100937.27;105187;1303;59822;-78
2022/01/21 10:53:29;;;;;;;9.40;2.90;;;;;;;21.67;25.46;100931.14;105137;1302;59724;-79
2022/01/21 10:55:54;;;;;;;8.70;3.60;;;;;;;21.57;25.19;100928.05;105063;1302;59305;-79
2022/01/21 10:58:20;;;;;;;15.20;3.70;;;;;;;21.52;25.18;100924.30;104831;1303;60933;-79
2022/01/21 11:01:02;;;;;;;7.40;3.60;;;;;;;21.48;25.28;100923.47;105076;1303;59803;-79
2022/01/21 11:03:31;;;;;;;14.80;4.00;;;;;;;21.45;25.23;100919.75;105170;1305;59961;-79
2022/01/21 11:06:11;;;;;;;9.20;4.00;;;;;;;21.40;25.30;100909.02;105090;1302;61608;-79
2022/01/21 11:08:37;;;;;;;8.30;3.90;;;;;;;21.37;25.26;100905.48;105445;1302;73991;-78
2022/01/21 11:11:02;;;;;;;8.00;3.90;;;;;;;21.36;25.31;100896.77;105362;1302;59245;-78
2022/01/21 11:13:28;;;;;;;9.90;4.30;;;;;;;21.36;25.35;100905.50;105410;1302;60612;-79
2022/01/21 11:16:18;;;;;;;10.80;4.30;;;;;;;21.38;25.32;100907.50;105407;1303;59217;-78
2022/01/21 11:18:58;;;;;;;9.60;4.30;;;;;;;21.43;25.24;100901.62;104977;1309;72118;-78
2022/01/21 11:21:44;;;;;;;7.60;4.20;;;;;;;21.48;25.37;100899.34;104094;1311;75712;-79
2022/01/21 11:24:10;;;;;;;9.70;4.10;;;;;;;21.53;25.34;100894.30;104780;1309;61477;-78
2022/01/21 11:26:35;;;;;;;8.40;3.80;;;;;;;21.59;25.35;100901.73;104885;1310;59312;-78
2022/01/21 11:29:02;;;;;;;8.60;3.80;;;;;;;21.65;25.52;100898.83;104855;1311;59618;-78
2022/01/21 11:31:28;;;;;;;9.60;4.20;;;;;;;21.70;25.47;100894.17;103812;1309;62125;-78
2022/01/21 11:33:54;;;;;;;10.80;4.00;;;;;;;21.74;25.43;100896.02;103970;1309;63387;-78
2022/01/21 11:36:19;;;;;;;11.60;3.30;;;;;;;21.77;25.67;100897.83;103867;1311;61415;-77
2022/01/21 11:39:05;;;;;;;7.70;3.20;;;;;;;21.80;25.79;100893.67;103947;1309;61367;-79
2022/01/21 11:41:31;;;;;;;6.80;3.10;;;;;;;21.81;25.80;100890.19;104196;1310;74896;-78
2022/01/21 11:44:00;;;;;;;10.90;3.10;;;;;;;21.83;25.63;100889.14;103817;1311;61506;-79
2022/01/21 11:49:04;;;;;;;10.30;3.30;;;;;;;21.88;25.84;100889.67;103587;1310;72770;-79
2022/01/21 11:51:33;;;;;;;10.30;3.50;;;;;;;21.85;25.42;100891.48;104634;1310;74894;-78
2022/01/21 11:53:58;;;;;;;10.10;3.70;;;;;;;21.73;24.83;100891.45;104425;1311;62476;-79
2022/01/21 11:56:57;;;;;;;11.70;4.00;;;;;;;21.61;24.56;100895.36;104903;1303;59700;-79
2022/01/21 12:02:21;;;;;;;8.30;3.30;;;;;;;21.45;24.47;100894.52;104876;1308;75994;-79
2022/01/21 12:04:51;;;;;;;13.30;3.70;;;;;;;21.38;24.34;100894.09;104931;1310;60275;-79
2022/01/21 12:07:34;;;;;;;;;;;;;;;21.28;24.23;100888.73;104794;1311;60426;-79
2022/01/21 12:10:17;;;;;;;9.20;3.10;;;;;;;21.17;24.17;100894.66;103911;1310;73173;-81
2022/01/21 12:15:36;;;;;;;11.00;3.50;;;;;;;21.19;23.77;100896.14;103906;1309;60410;-79
2022/01/21 12:18:05;;;;;;;26.60;4.10;;;;;;;21.19;23.86;100897.05;104652;1308;61396;-80
2022/01/21 12:20:38;;;;;;;14.50;3.80;;;;;;;21.20;24.38;100895.54;104017;1308;75087;-79
2022/01/21 12:23:16;;;;;;;10.90;3.80;;;;;;;21.22;24.61;100899.53;103938;1311;63080;-79
2022/01/21 12:26:25;;;;;;;12.40;3.60;;;;;;;21.21;24.40;100892.97;103937;1310;61491;-80
2022/01/21 12:29:13;;;;;;;10.90;3.40;;;;;;;21.19;23.97;100893.14;105117;1308;61048;-79
2022/01/21 12:32:03;;;;;;;7.90;3.20;;;;;;;21.18;23.84;100892.16;104250;1316;73830;-78
2022/01/21 12:35:01;;;;;;;8.70;3.50;;;;;;;21.18;23.80;100890.86;103622;1325;74829;-79
2022/01/21 12:38:03;;;;;;;;;;;;;;;;;;;;;
2022/01/21 12:40:34;;;;;;;7.20;3.20;;;;;;;21.24;23.59;100887.56;103993;1319;60300;-79
2022/01/21 12:42:59;;;;;;;7.40;3.20;;;;;;;21.28;23.29;100888.37;103673;1319;72870;-79
2022/01/21 12:45:25;;;;;;;10.60;3.50;;;;;;;21.31;23.15;100892.81;102907;1319;61362;-78
2022/01/21 12:47:51;;;;;;;16.00;3.70;;;;;;;21.33;23.07;100892.13;102556;1321;61447;-78
2022/01/21 12:52:53;;;;;;;6.90;3.10;;;;;;;21.34;22.74;100893.32;103961;1319;73786;-79
2022/01/21 12:55:55;;;;;;;9.50;3.00;;;;;;;21.35;22.65;100896.45;103929;1319;74862;-80
2022/01/21 12:58:24;;;;;;;17.10;3.70;;;;;;;21.37;22.56;100893.13;104094;1319;60396;-79
2022/01/21 13:01:01;;;;;;;10.60;3.10;;;;;;;21.42;22.52;100885.73;104125;1319;60205;-80
2022/01/21 13:03:32;;;;;;;9.50;3.10;;;;;;;21.49;22.65;100884.39;103887;1319;74122;-80